Time;durP1;ratioP1;P1;durP2;ratioP2;P2;SDS_P1;SDS_P2;PMS_P1;PMS_P2;Temp;Humidity;BMP_temperature;BMP_pressure;BME280_temperature;BME280_humidity;BME280_pressure;Samples;Min_cycle;Max_cycle;Signal;HPM_P1;HPM_P2
2021/01/25 00:00:58;;;;;;;;;;;;;;;23.29;45.55;99458.34;2066736;28;3928;-43
2021/01/25 00:01:59;;;;;;;;;;;;;;;23.28;45.65;99463.25;2067431;28;4095;-43
2021/01/25 00:03:00;;;;;;;;;;;;;;;23.28;45.71;99453.88;2066507;28;4856;-43
2021/01/25 00:04:01;;;;;;;;;;;;;;;23.29;45.42;99452.63;2067776;28;3926;-43
2021/01/25 00:05:02;;;;;;;;;;;;;;;23.30;45.50;99454.28;2067278;28;4069;-43
2021/01/25 00:06:02;;;;;;;;;;;;;;;23.34;45.50;99452.25;2064499;28;4208;-43
2021/01/25 00:07:03;;;;;;;;;;;;;;;23.33;45.53;99447.78;2067113;28;4254;-43
2021/01/25 00:08:04;;;;;;;;;;;;;;;23.32;45.51;99457.53;2068512;28;3899;-43
2021/01/25 00:09:05;;;;;;;;;;;;;;;23.33;45.66;99459.19;2067164;28;3894;-43
2021/01/25 00:10:05;;;;;;;;;;;;;;;23.32;45.70;99446.97;2066243;28;3889;-43
2021/01/25 00:11:06;;;;;;;;;;;;;;;23.31;45.59;99459.59;2068559;28;4054;-43
2021/01/25 00:12:07;;;;;;;;;;;;;;;23.32;45.54;99461.22;2066275;28;4063;-42
2021/01/25 00:13:08;;;;;;;;;;;;;;;23.32;45.51;99460.38;2067446;28;4030;-42
2021/01/25 00:14:09;;;;;;;;;;;;;;;23.33;45.49;99459.19;2066740;28;3882;-43
2021/01/25 00:15:09;;;;;;;;;;;;;;;23.32;45.53;99458.38;2067016;28;4057;-43
2021/01/25 00:16:10;;;;;;;;;;;;;;;23.30;45.51;99449.41;2068749;28;4041;-43
2021/01/25 00:17:11;;;;;;;;;;;;;;;23.31;45.38;99461.63;2065693;28;4011;-43
2021/01/25 00:18:12;;;;;;;;;;;;;;;23.32;45.38;99458.38;2067782;28;4064;-42
2021/01/25 00:19:13;;;;;;;;;;;;;;;23.36;45.38;99449.81;2068347;28;4032;-43
2021/01/25 00:20:14;;;;;;;;;;;;;;;23.36;45.58;99449.00;2067938;28;4174;-43
2021/01/25 00:21:14;;;;;;;;;;;;;;;23.37;45.35;99457.16;2067889;28;4043;-43
2021/01/25 00:22:15;;;;;;;;;;;;;;;23.39;45.37;99456.75;2061785;28;4013;-43
2021/01/25 00:23:16;;;;;;;;;;;;;;;23.35;45.20;99453.91;2063807;28;4036;-43
2021/01/25 00:24:17;;;;;;;;;;;;;;;23.36;45.17;99461.25;2066289;28;3877;-43
2021/01/25 00:25:18;;;;;;;;;;;;;;;23.32;45.43;99458.38;2067729;28;4252;-43
2021/01/25 00:26:19;;;;;;;;;;;;;;;23.36;45.33;99454.72;2067754;28;4049;-43
2021/01/25 00:27:20;;;;;;;;;;;;;;;23.33;45.29;99459.19;2062679;28;4044;-43
2021/01/25 00:28:21;;;;;;;;;;;;;;;23.32;45.44;99460.38;2067776;28;4235;-43
2021/01/25 00:29:22;;;;;;;;;;;;;;;23.28;45.36;99459.56;2067690;28;4046;-43
2021/01/25 00:30:22;;;;;;;;;;;;;;;23.28;45.39;99462.44;2067195;28;3897;-43
2021/01/25 00:31:23;;;;;;;;;;;;;;;23.30;45.25;99462.84;2058618;28;4049;-42
2021/01/25 00:32:24;;;;;;;;;;;;;;;23.30;45.37;99457.97;2065418;28;3993;-43
2021/01/25 00:33:25;;;;;;;;;;;;;;;23.31;45.31;99456.72;2066572;28;4036;-43
2021/01/25 00:34:26;;;;;;;;;;;;;;;23.29;45.19;99452.63;2066073;28;4050;-43
2021/01/25 00:35:27;;;;;;;;;;;;;;;23.29;45.41;99461.19;2067060;28;4043;-43
2021/01/25 00:36:27;;;;;;;;;;;;;;;23.27;45.50;99455.09;2065652;28;3864;-43
2021/01/25 00:37:30;;;;;;;;;;;;;;;23.29;45.19;99456.31;2066112;28;4053;-43
2021/01/25 00:38:30;;;;;;;;;;;;;;;23.28;45.20;99459.56;2067859;28;4068;-43
2021/01/25 00:39:31;;;;;;;;;;;;;;;23.33;45.16;99453.47;2063503;28;4086;-43
2021/01/25 00:40:32;;;;;;;;;;;;;;;23.34;45.04;99466.53;2065772;28;3860;-42
2021/01/25 00:41:33;;;;;;;;;;;;;;;23.33;45.05;99453.47;2066822;28;3907;-42
2021/01/25 00:42:33;;;;;;;;;;;;;;;23.34;45.02;99453.06;2063345;28;3749;-42
2021/01/25 00:43:34;;;;;;;;;;;;;;;23.36;44.96;99455.53;2065623;28;4613;-43
2021/01/25 00:44:35;;;;;;;;;;;;;;;23.35;44.91;99453.91;2067149;28;4095;-42
2021/01/25 00:45:35;;;;;;;;;;;;;;;23.38;44.92;99455.09;2066219;28;3885;-43
2021/01/25 00:46:36;;;;;;;;;;;;;;;23.44;44.99;99457.19;2067165;28;4005;-42
2021/01/25 00:47:37;;;;;;;;;;;;;;;23.44;44.75;99456.38;2065151;28;3878;-42
2021/01/25 00:48:38;;;;;;;;;;;;;;;23.40;44.90;99461.25;2065305;28;4121;-42
2021/01/25 01:49:48;;;;;;;;;;;;;;;22.87;45.47;99480.53;2038797;29;3984;-67
2021/01/25 01:50:49;;;;;;;;;;;;;;;22.92;45.48;99485.06;2046820;28;3733;-67
2021/01/25 01:51:49;;;;;;;;;;;;;;;22.92;45.30;99482.22;2047328;28;3978;-68
2021/01/25 01:52:50;;;;;;;;;;;;;;;22.91;45.27;99483.44;2046917;28;3724;-67
2021/01/25 01:53:51;;;;;;;;;;;;;;;22.94;45.30;99487.50;2047456;28;4742;-70
2021/01/25 01:54:51;;;;;;;;;;;;;;;22.97;45.08;99490.41;2045791;28;4515;-68
2021/01/25 01:55:52;;;;;;;;;;;;;;;22.98;44.87;99480.63;2047826;28;3949;-67
2021/01/25 01:56:53;;;;;;;;;;;;;;;23.01;44.93;99487.56;2047831;28;4073;-67
2021/01/25 01:57:54;;;;;;;;;;;;;;;22.98;45.08;99485.53;2045738;28;4978;-66
2021/01/25 01:58:54;;;;;;;;;;;;;;;22.99;44.93;99482.28;2046720;28;3763;-67
2021/01/25 01:59:55;;;;;;;;;;;;;;;23.01;44.88;99487.56;2048846;28;3893;-67
2021/01/25 02:00:56;;;;;;;;;;;;;;;23.02;44.85;99486.34;2048784;28;3849;-67
2021/01/25 02:01:57;;;;;;;;;;;;;;;23.05;44.92;99482.72;2047883;28;3850;-68
2021/01/25 02:02:58;;;;;;;;;;;;;;;23.06;44.70;99479.47;2048749;28;3777;-68
2021/01/25 02:03:59;;;;;;;;;;;;;;;23.14;44.77;99486.03;2049251;28;4103;-67
2021/01/25 02:04:59;;;;;;;;;;;;;;;23.20;44.56;99486.44;2047390;28;3912;-69
2021/01/25 02:06:00;;;;;;;;;;;;;;;23.15;44.70;99484.78;2047527;28;4011;-67
2021/01/25 02:07:01;;;;;;;;;;;;;;;23.15;44.97;99490.50;2047742;28;3761;-68
2021/01/25 02:08:02;;;;;;;;;;;;;;;23.16;45.07;99497.84;2048172;28;3831;-67
2021/01/25 02:09:03;;;;;;;;;;;;;;;23.14;45.05;99486.03;2048237;28;3879;-67
2021/01/25 02:10:03;;;;;;;;;;;;;;;23.13;45.10;99490.09;2049184;28;3850;-67
2021/01/25 02:11:06;;;;;;;;;;;;;;;23.16;44.97;99485.59;2048996;29;3923;-68
2021/01/25 02:12:06;;;;;;;;;;;;;;;23.16;45.12;99492.16;2048070;28;4073;-67
2021/01/25 02:13:07;;;;;;;;;;;;;;;23.15;45.01;99489.69;2048760;28;3777;-68
2021/01/25 02:14:08;;;;;;;;;;;;;;;23.17;45.21;99490.91;2049641;28;3838;-68
2021/01/25 02:15:14;;;;;;;;;;;;;;;23.21;44.91;99494.63;2048766;28;4048;-67
2021/01/25 02:16:14;;;;;;;;;;;;;;;23.21;44.86;99488.06;2046037;28;3813;-67
2021/01/25 02:17:18;;;;;;;;;;;;;;;23.19;44.91;99488.50;2048581;29;3858;-67
2021/01/25 02:18:36;;;;;;;;;;;;;;;23.15;44.83;99492.53;2026429;29;3825;-67
2021/01/25 02:19:37;;;;;;;;;;;;;;;23.14;45.12;99488.88;2041669;29;3768;-67
2021/01/25 02:20:38;;;;;;;;;;;;;;;23.16;44.94;99494.16;2049164;28;3873;-67
2021/01/25 02:21:39;;;;;;;;;;;;;;;23.15;44.92;99490.50;2048731;28;5354;-67
2021/01/25 02:22:39;;;;;;;;;;;;;;;23.12;45.01;99497.00;2048224;28;3855;-67
2021/01/25 02:23:40;;;;;;;;;;;;;;;23.14;45.05;99505.19;2048644;28;3979;-68
2021/01/25 02:24:41;;;;;;;;;;;;;;;23.16;45.00;99499.88;2048832;28;3757;-68
2021/01/25 02:25:41;;;;;;;;;;;;;;;23.17;45.03;99501.53;2048157;28;4179;-67
2021/01/25 02:26:42;;;;;;;;;;;;;;;23.15;45.05;99499.06;2045837;28;4081;-67
2021/01/25 02:27:43;;;;;;;;;;;;;;;23.16;44.97;99506.41;2046526;28;5436;-67
2021/01/25 02:28:44;;;;;;;;;;;;;;;23.16;45.05;99511.28;2047383;28;3891;-67
2021/01/25 02:29:44;;;;;;;;;;;;;;;23.19;44.84;99513.34;2046825;28;3965;-67
2021/01/25 02:30:45;;;;;;;;;;;;;;;23.21;44.90;99508.03;2047587;28;3760;-68
2021/01/25 02:31:46;;;;;;;;;;;;;;;23.24;44.87;99508.09;2046975;28;3817;-68
2021/01/25 02:32:47;;;;;;;;;;;;;;;23.22;44.73;99512.56;2048990;29;3921;-68
2021/01/25 02:33:48;;;;;;;;;;;;;;;23.21;44.85;99506.03;2048732;28;3742;-67
2021/01/25 02:34:48;;;;;;;;;;;;;;;23.22;44.88;99512.56;2047706;28;3757;-67
2021/01/25 02:35:49;;;;;;;;;;;;;;;23.26;44.72;99519.06;2047085;28;3859;-68
2021/01/25 02:36:50;;;;;;;;;;;;;;;23.28;44.72;99511.75;2045233;28;3981;-68
2021/01/25 02:37:52;;;;;;;;;;;;;;;23.23;44.84;99512.13;2046648;29;3975;-68
2021/01/25 02:38:53;;;;;;;;;;;;;;;23.25;44.75;99509.69;2047645;28;4602;-68
2021/01/25 02:39:54;;;;;;;;;;;;;;;23.26;44.72;99511.31;2049108;29;3795;-68
2021/01/25 02:40:54;;;;;;;;;;;;;;;23.26;44.68;99514.19;2048855;29;3749;-67
2021/01/25 02:41:55;;;;;;;;;;;;;;;23.25;44.80;99508.91;2048030;28;3812;-68
2021/01/25 02:42:56;;;;;;;;;;;;;;;23.22;44.73;99504.81;2048840;29;3755;-68
2021/01/25 02:43:57;;;;;;;;;;;;;;;23.22;44.80;99507.66;2048543;28;3866;-68
2021/01/25 02:44:57;;;;;;;;;;;;;;;23.19;44.84;99502.75;2048374;28;3873;-68
2021/01/25 02:45:58;;;;;;;;;;;;;;;23.23;44.77;99509.28;2047520;28;3769;-69
2021/01/25 02:46:59;;;;;;;;;;;;;;;23.20;44.90;99507.22;2046518;28;3767;-68
2021/01/25 02:48:00;;;;;;;;;;;;;;;23.18;44.84;99506.00;2048642;28;3742;-68
2021/01/25 02:49:01;;;;;;;;;;;;;;;23.21;44.93;99508.03;2048691;28;3978;-68
2021/01/25 02:50:01;;;;;;;;;;;;;;;23.19;44.73;99519.88;2048072;28;4216;-68
2021/01/25 02:51:02;;;;;;;;;;;;;;;23.19;44.82;99514.16;2046016;28;3937;-68
2021/01/25 02:52:03;;;;;;;;;;;;;;;23.17;44.73;99510.88;2048523;29;3855;-68
2021/01/25 02:53:04;;;;;;;;;;;;;;;23.15;44.89;99512.50;2048926;29;4232;-67
2021/01/25 02:54:05;;;;;;;;;;;;;;;23.15;44.82;99518.22;2048711;28;3905;-68
2021/01/25 02:55:05;;;;;;;;;;;;;;;23.16;44.71;99514.13;2048439;28;3812;-67
2021/01/25 02:56:06;;;;;;;;;;;;;;;23.15;44.79;99518.22;2047196;28;3919;-68
2021/01/25 02:57:07;;;;;;;;;;;;;;;23.16;44.74;99526.38;2048015;28;3751;-68
2021/01/25 02:58:08;;;;;;;;;;;;;;;23.21;44.61;99520.28;2048698;29;3883;-69
2021/01/25 02:59:09;;;;;;;;;;;;;;;23.24;44.61;99522.34;2048175;28;3841;-69
2021/01/25 03:00:09;;;;;;;;;;;;;;;23.23;44.66;99514.19;2048996;28;4013;-69
2021/01/25 03:01:10;;;;;;;;;;;;;;;23.26;44.71;99517.03;2047694;28;3956;-69
2021/01/25 03:02:11;;;;;;;;;;;;;;;23.23;44.62;99514.19;2048100;28;3799;-69
2021/01/25 03:03:12;;;;;;;;;;;;;;;23.22;44.63;99513.38;2048753;28;3753;-69
2021/01/25 03:04:13;;;;;;;;;;;;;;;23.25;44.66;99515.41;2048871;29;3972;-68
2021/01/25 03:05:14;;;;;;;;;;;;;;;23.24;44.72;99510.94;2047255;28;3749;-68
2021/01/25 03:06:15;;;;;;;;;;;;;;;23.27;44.56;99512.16;2047434;28;3751;-67
2021/01/25 03:07:15;;;;;;;;;;;;;;;23.24;44.55;99510.09;2048290;28;3809;-68
2021/01/25 03:08:16;;;;;;;;;;;;;;;23.23;44.44;99508.47;2048615;29;3716;-67
2021/01/25 03:09:17;;;;;;;;;;;;;;;23.26;44.56;99513.38;2040168;29;3783;-68
2021/01/25 03:10:17;;;;;;;;;;;;;;;23.25;44.54;99512.56;2039451;29;3765;-68
2021/01/25 03:11:19;;;;;;;;;;;;;;;23.25;44.56;99511.75;2048430;28;3746;-68
2021/01/25 03:12:20;;;;;;;;;;;;;;;23.22;44.70;99521.13;2048646;28;5031;-68
2021/01/25 03:13:21;;;;;;;;;;;;;;;23.22;44.71;99515.41;2047026;29;3911;-68
2021/01/25 03:14:21;;;;;;;;;;;;;;;23.22;44.65;99521.91;2048449;28;3741;-68
2021/01/25 03:15:22;;;;;;;;;;;;;;;23.25;44.63;99512.56;2046718;28;5069;-68
2021/01/25 03:16:23;;;;;;;;;;;;;;;23.25;44.75;99528.88;2048847;29;3871;-70
2021/01/25 03:17:24;;;;;;;;;;;;;;;23.25;44.75;99520.31;2047896;28;3801;-70
2021/01/25 03:18:25;;;;;;;;;;;;;;;23.24;44.72;99527.22;2047774;28;3817;-70
2021/01/25 03:19:26;;;;;;;;;;;;;;;23.23;45.04;99523.53;2047664;28;3774;-70
2021/01/25 03:20:27;;;;;;;;;;;;;;;23.23;44.98;99525.59;2045021;28;3775;-68
2021/01/25 03:21:28;;;;;;;;;;;;;;;23.21;44.92;99522.31;2048024;28;4172;-68
2021/01/25 03:22:28;;;;;;;;;;;;;;;23.19;44.99;99530.47;2049021;29;3755;-68
2021/01/25 03:23:29;;;;;;;;;;;;;;;23.16;44.95;99525.53;2048338;29;3829;-69
2021/01/25 03:24:30;;;;;;;;;;;;;;;23.15;45.07;99527.59;2048025;28;3837;-69
2021/01/25 03:25:31;;;;;;;;;;;;;;;23.16;45.15;99525.53;2046629;28;3877;-68
2021/01/25 03:26:31;;;;;;;;;;;;;;;23.14;45.36;99528.81;2048468;28;3892;-69
2021/01/25 03:27:32;;;;;;;;;;;;;;;23.14;45.20;99517.41;2048285;28;3768;-69
2021/01/25 03:28:33;;;;;;;;;;;;;;;23.15;45.12;99518.22;2048124;29;3775;-68
2021/01/25 03:29:34;;;;;;;;;;;;;;;23.18;45.13;99521.06;2047666;28;3747;-68
2021/01/25 03:30:35;;;;;;;;;;;;;;;23.19;45.15;99519.06;2048381;28;4035;-67
2021/01/25 03:31:35;;;;;;;;;;;;;;;23.22;44.95;99523.97;2048540;29;3761;-68
2021/01/25 03:32:36;;;;;;;;;;;;;;;23.22;45.00;99518.25;2048600;28;3727;-68
2021/01/25 03:33:37;;;;;;;;;;;;;;;23.21;45.02;99522.31;2044669;28;3895;-68
2021/01/25 03:34:38;;;;;;;;;;;;;;;23.22;44.90;99516.22;2048646;29;3731;-67
2021/01/25 03:35:39;;;;;;;;;;;;;;;23.22;45.10;99521.91;2047975;28;3751;-68
2021/01/25 03:36:40;;;;;;;;;;;;;;;23.24;44.80;99524.34;2045960;28;3796;-68
2021/01/25 03:37:40;;;;;;;;;;;;;;;23.24;45.04;99524.34;2047296;28;3767;-68
2021/01/25 03:38:41;;;;;;;;;;;;;;;23.27;45.19;99523.59;2046699;28;3841;-67
2021/01/25 03:39:42;;;;;;;;;;;;;;;23.28;45.08;99522.34;2048654;28;3725;-67
2021/01/25 03:40:42;;;;;;;;;;;;;;;23.27;44.94;99524.41;2047997;29;3772;-67
2021/01/25 03:41:43;;;;;;;;;;;;;;;23.32;44.81;99531.72;2047823;28;3772;-68
2021/01/25 03:42:44;;;;;;;;;;;;;;;23.31;44.80;99527.25;2047283;28;3760;-67
2021/01/25 03:43:48;;;;;;;;;;;;;;;23.31;45.03;99527.25;2046004;29;3756;-67
2021/01/25 03:44:48;;;;;;;;;;;;;;;23.33;44.91;99524.81;2047901;28;3826;-67
2021/01/25 03:45:49;;;;;;;;;;;;;;;23.31;44.98;99528.06;2046771;28;3713;-67
2021/01/25 03:46:50;;;;;;;;;;;;;;;23.32;45.00;99523.16;2047284;28;3793;-67
2021/01/25 03:47:51;;;;;;;;;;;;;;;23.32;45.01;99529.72;2047851;28;4927;-67
2021/01/25 03:48:52;;;;;;;;;;;;;;;23.31;45.00;99533.78;2046607;28;4896;-68
2021/01/25 03:49:52;;;;;;;;;;;;;;;23.29;44.88;99535.38;2048201;28;3862;-68
2021/01/25 03:50:53;;;;;;;;;;;;;;;23.26;45.04;99537.00;2047201;28;3874;-68
2021/01/25 03:51:54;;;;;;;;;;;;;;;23.28;44.98;99539.47;2048388;29;3883;-68
2021/01/25 03:52:55;;;;;;;;;;;;;;;23.31;45.13;99538.66;2048118;28;3780;-68
2021/01/25 03:53:55;;;;;;;;;;;;;;;23.29;45.18;99543.94;2047909;28;3785;-68
2021/01/25 03:54:56;;;;;;;;;;;;;;;23.27;45.11;99541.53;2047616;28;3988;-68
2021/01/25 03:55:57;;;;;;;;;;;;;;;23.30;45.08;99543.56;2046257;28;4004;-69
2021/01/25 03:56:57;;;;;;;;;;;;;;;23.27;44.97;99543.56;2047963;28;3998;-68
2021/01/25 03:57:58;;;;;;;;;;;;;;;23.27;44.94;99550.06;2048094;28;3779;-68
2021/01/25 03:58:59;;;;;;;;;;;;;;;23.27;44.94;99543.56;2047852;28;4099;-68
2021/01/25 04:00:00;;;;;;;;;;;;;;;23.28;44.94;99551.69;2048132;28;3789;-68
2021/01/25 04:01:01;;;;;;;;;;;;;;;23.29;45.05;99558.22;2047780;28;3801;-68
2021/01/25 04:02:02;;;;;;;;;;;;;;;23.26;44.90;99548.44;2048049;28;3766;-68
2021/01/25 04:03:03;;;;;;;;;;;;;;;23.32;44.85;99560.28;2046893;28;3833;-68
2021/01/25 04:04:04;;;;;;;;;;;;;;;23.29;44.92;99550.47;2047287;28;3817;-69
2021/01/25 04:05:05;;;;;;;;;;;;;;;23.29;44.92;99550.47;2046267;28;3801;-69
2021/01/25 04:06:06;;;;;;;;;;;;;;;23.28;45.14;99550.91;2046351;28;3844;-68
2021/01/25 04:07:06;;;;;;;;;;;;;;;23.28;45.12;99546.00;2045690;28;3782;-69
2021/01/25 04:08:07;;;;;;;;;;;;;;;23.25;45.00;99551.69;2047857;28;3785;-68
2021/01/25 04:09:08;;;;;;;;;;;;;;;23.23;45.18;99539.84;2048645;28;3850;-68
2021/01/25 04:10:08;;;;;;;;;;;;;;;23.24;45.24;99547.19;2047470;28;3742;-68
2021/01/25 04:11:10;;;;;;;;;;;;;;;23.21;45.15;99542.28;2046907;28;3785;-68
2021/01/25 04:12:11;;;;;;;;;;;;;;;23.27;45.02;99541.53;2048502;28;4244;-68
2021/01/25 04:13:11;;;;;;;;;;;;;;;23.28;44.96;99539.47;2049188;28;3951;-68
2021/01/25 04:14:12;;;;;;;;;;;;;;;23.29;45.03;99533.34;2047606;28;3779;-68
2021/01/25 04:15:13;;;;;;;;;;;;;;;23.28;45.06;99536.63;2048260;28;3964;-68
2021/01/25 04:16:14;;;;;;;;;;;;;;;23.25;45.03;99531.72;2046954;28;3877;-68
2021/01/25 04:17:15;;;;;;;;;;;;;;;23.28;44.87;99531.72;2047754;28;3905;-68
2021/01/25 04:18:16;;;;;;;;;;;;;;;23.29;44.81;99535.38;2047410;28;3839;-67
2021/01/25 04:19:17;;;;;;;;;;;;;;;23.33;44.83;99539.09;2048226;29;3795;-68
2021/01/25 04:20:18;;;;;;;;;;;;;;;23.33;44.97;99539.09;2047631;28;3916;-69
2021/01/25 04:21:19;;;;;;;;;;;;;;;23.36;44.91;99532.59;2047284;28;3766;-68
2021/01/25 04:22:19;;;;;;;;;;;;;;;23.40;44.98;99541.16;2048392;29;3765;-68
2021/01/25 04:23:20;;;;;;;;;;;;;;;23.40;45.04;99541.16;2047743;28;3824;-69
2021/01/25 04:24:21;;;;;;;;;;;;;;;23.37;44.91;99539.91;2046329;28;3754;-68
2021/01/25 04:25:22;;;;;;;;;;;;;;;23.37;45.01;99544.81;2047443;28;3767;-68
2021/01/25 04:26:22;;;;;;;;;;;;;;;23.38;44.98;99544.44;2047752;28;3769;-69
2021/01/25 04:27:23;;;;;;;;;;;;;;;23.41;44.77;99548.50;2038883;29;4039;-68
2021/01/25 04:28:24;;;;;;;;;;;;;;;23.38;44.93;99544.44;2038174;29;3935;-68
2021/01/25 04:29:25;;;;;;;;;;;;;;;23.41;45.04;99546.47;2048605;28;3777;-68
2021/01/25 04:30:26;;;;;;;;;;;;;;;23.43;44.86;99551.75;2049267;28;3873;-69
2021/01/25 04:31:27;;;;;;;;;;;;;;;23.43;44.88;99548.91;2049448;29;3757;-69
2021/01/25 04:32:27;;;;;;;;;;;;;;;23.45;44.98;99555.84;2048869;28;3862;-69
2021/01/25 04:33:28;;;;;;;;;;;;;;;23.50;44.82;99557.50;2048139;28;3784;-67
2021/01/25 04:34:29;;;;;;;;;;;;;;;23.50;44.83;99564.03;2049052;28;3776;-67
2021/01/25 04:35:30;;;;;;;;;;;;;;;23.51;44.79;99556.28;2046966;28;3791;-67
2021/01/25 04:36:31;;;;;;;;;;;;;;;23.50;44.81;99552.63;2049745;28;3812;-67
2021/01/25 04:37:32;;;;;;;;;;;;;;;23.53;44.89;99551.00;2049118;28;3753;-67
2021/01/25 04:38:33;;;;;;;;;;;;;;;23.50;44.93;99554.66;2047761;28;5504;-67
2021/01/25 04:39:33;;;;;;;;;;;;;;;23.50;44.86;99557.50;2050227;28;3878;-68
2021/01/25 04:40:34;;;;;;;;;;;;;;;23.49;44.91;99556.69;2050006;29;3919;-68
2021/01/25 04:41:35;;;;;;;;;;;;;;;23.45;44.95;99558.72;2048898;28;3997;-68
2021/01/25 04:42:35;;;;;;;;;;;;;;;23.47;45.02;99564.03;2049708;28;3780;-68
2021/01/25 04:43:36;;;;;;;;;;;;;;;23.46;45.03;99560.38;2049342;28;3828;-68
2021/01/25 04:44:37;;;;;;;;;;;;;;;23.46;45.04;99556.66;2049402;29;4187;-68
2021/01/25 04:45:38;;;;;;;;;;;;;;;23.49;45.01;99553.03;2049485;28;4150;-68
2021/01/25 04:46:39;;;;;;;;;;;;;;;23.27;45.00;99554.97;2049825;28;3794;-68
2021/01/25 04:47:39;;;;;;;;;;;;;;;22.75;44.36;99555.03;2049754;29;3713;-69
2021/01/25 04:48:41;;;;;;;;;;;;;;;22.43;44.56;99554.75;2049474;28;3870;-68
2021/01/25 04:49:41;;;;;;;;;;;;;;;22.24;44.65;99562.31;2049520;28;3725;-68
2021/01/25 04:50:42;;;;;;;;;;;;;;;22.33;47.02;99561.19;2049182;28;3953;-66
2021/01/25 04:51:43;;;;;;;;;;;;;;;22.65;45.85;99564.31;2049412;28;3736;-66
2021/01/25 04:52:43;;;;;;;;;;;;;;;22.92;45.00;99564.09;2049746;28;3724;-67
2021/01/25 04:53:44;;;;;;;;;;;;;;;23.10;44.44;99563.03;2049056;28;3721;-67
2021/01/25 04:54:45;;;;;;;;;;;;;;;23.18;44.30;99569.56;2049249;28;3859;-67
2021/01/25 04:55:46;;;;;;;;;;;;;;;23.23;44.24;99572.06;2049051;28;3825;-68
2021/01/25 04:56:46;;;;;;;;;;;;;;;23.28;44.23;99565.16;2049378;29;3724;-68
2021/01/25 04:57:47;;;;;;;;;;;;;;;23.31;44.06;99567.22;2049224;28;3962;-66
2021/01/25 04:58:48;;;;;;;;;;;;;;;23.37;44.22;99568.47;2049509;28;3876;-67
2021/01/25 04:59:48;;;;;;;;;;;;;;;23.38;43.95;99569.28;2049655;29;3918;-66
2021/01/25 05:00:49;;;;;;;;;;;;;;;23.37;44.07;99565.59;2049435;28;3982;-66
2021/01/25 05:01:50;;;;;;;;;;;;;;;23.40;44.11;99576.22;2048504;28;3724;-66
2021/01/25 05:02:51;;;;;;;;;;;;;;;23.42;44.05;99568.06;2049572;28;3625;-66
2021/01/25 05:03:52;;;;;;;;;;;;;;;23.42;44.06;99573.78;2049377;28;3752;-67
2021/01/25 05:04:53;;;;;;;;;;;;;;;23.36;44.08;99578.25;2049284;28;3804;-67
2021/01/25 05:05:53;;;;;;;;;;;;;;;23.39;44.07;99577.44;2049598;28;4111;-68
2021/01/25 05:06:54;;;;;;;;;;;;;;;23.40;44.40;99579.06;2049522;28;3800;-67
2021/01/25 05:07:55;;;;;;;;;;;;;;;23.42;44.38;99578.69;2049213;28;3933;-67
2021/01/25 05:08:55;;;;;;;;;;;;;;;23.40;44.45;99575.41;2049218;28;3848;-68
2021/01/25 05:09:56;;;;;;;;;;;;;;;23.35;44.41;99579.47;2049276;28;3839;-68
2021/01/25 05:10:57;;;;;;;;;;;;;;;23.35;44.30;99576.63;2048676;28;3936;-68
2021/01/25 05:11:58;;;;;;;;;;;;;;;23.34;44.35;99583.53;2048785;28;3784;-68
2021/01/25 05:12:58;;;;;;;;;;;;;;;23.37;44.31;99577.00;2041343;29;3786;-68
2021/01/25 05:14:00;;;;;;;;;;;;;;;23.39;44.19;99582.34;2041352;29;3785;-68
2021/01/25 05:15:01;;;;;;;;;;;;;;;23.38;44.25;99581.53;2048794;28;3767;-68
2021/01/25 05:16:01;;;;;;;;;;;;;;;23.39;44.24;99576.63;2049370;29;3787;-68
2021/01/25 05:17:02;;;;;;;;;;;;;;;23.42;44.19;99579.50;2049520;28;4209;-68
2021/01/25 05:18:03;;;;;;;;;;;;;;;23.41;44.23;99579.91;2049187;28;4307;-66
2021/01/25 05:19:04;;;;;;;;;;;;;;;23.40;44.20;99578.25;2049593;29;3803;-68
2021/01/25 05:20:05;;;;;;;;;;;;;;;23.43;44.04;99580.31;2048902;28;3757;-69
2021/01/25 05:21:06;;;;;;;;;;;;;;;23.43;44.11;99580.31;2049557;28;3921;-68
2021/01/25 05:22:07;;;;;;;;;;;;;;;23.43;44.19;99578.25;2049144;29;3845;-69
2021/01/25 05:23:08;;;;;;;;;;;;;;;23.45;44.11;99581.53;2049558;28;3918;-68
2021/01/25 05:24:08;;;;;;;;;;;;;;;23.48;44.04;99580.75;2049113;28;3982;-68
2021/01/25 05:25:10;;;;;;;;;;;;;;;23.46;44.13;99577.50;2049272;28;4024;-68
2021/01/25 05:26:13;;;;;;;;;;;;;;;23.47;44.02;99581.97;2049378;29;3891;-68
2021/01/25 05:27:13;;;;;;;;;;;;;;;23.47;44.10;99578.31;2048358;28;4014;-68
2021/01/25 05:28:14;;;;;;;;;;;;;;;23.45;44.01;99578.69;2046419;28;3925;-66
2021/01/25 05:29:15;;;;;;;;;;;;;;;23.44;44.07;99571.34;2049453;28;3737;-67
2021/01/25 05:30:16;;;;;;;;;;;;;;;23.49;43.99;99578.72;2049074;29;4054;-66
2021/01/25 05:31:16;;;;;;;;;;;;;;;23.49;43.86;99573.84;2048074;28;3854;-66
2021/01/25 05:32:19;;;;;;;;;;;;;;;23.49;43.94;99570.97;2048134;28;3974;-67
2021/01/25 05:33:20;;;;;;;;;;;;;;;23.50;43.96;99574.63;2048845;28;5118;-67
2021/01/25 05:34:21;;;;;;;;;;;;;;;23.48;44.02;99575.03;2049206;28;3825;-65
2021/01/25 05:35:21;;;;;;;;;;;;;;;23.52;43.99;99577.94;2048824;28;3850;-66
2021/01/25 05:36:22;;;;;;;;;;;;;;;23.51;43.96;99579.13;2049142;28;3997;-66
2021/01/25 05:37:23;;;;;;;;;;;;;;;23.50;43.98;99581.16;2049785;28;4015;-66
2021/01/25 05:38:24;;;;;;;;;;;;;;;23.53;44.07;99577.50;2049054;28;3755;-66
2021/01/25 05:39:24;;;;;;;;;;;;;;;23.51;44.15;99579.13;2048771;28;3856;-67
2021/01/25 05:40:25;;;;;;;;;;;;;;;23.51;44.08;99577.06;2047897;28;4086;-67
2021/01/25 05:41:26;;;;;;;;;;;;;;;23.53;43.97;99580.34;2048579;29;3752;-67
2021/01/25 05:42:27;;;;;;;;;;;;;;;23.51;44.07;99584.81;2049359;28;4021;-67
2021/01/25 05:43:27;;;;;;;;;;;;;;;23.51;44.06;99573.41;2049025;28;3972;-67
2021/01/25 05:44:28;;;;;;;;;;;;;;;23.51;44.11;99582.78;2046225;28;3738;-67
2021/01/25 05:45:29;;;;;;;;;;;;;;;23.55;44.02;99577.13;2048311;28;3987;-67
2021/01/25 05:46:30;;;;;;;;;;;;;;;23.51;44.05;99576.25;2048936;28;3759;-67
2021/01/25 05:47:31;;;;;;;;;;;;;;;23.53;43.96;99573.84;2048384;28;3722;-67
2021/01/25 05:48:31;;;;;;;;;;;;;;;23.52;43.98;99581.59;2047079;28;3912;-68
2021/01/25 05:49:32;;;;;;;;;;;;;;;23.51;44.03;99576.25;2048380;29;3747;-68
2021/01/25 05:50:33;;;;;;;;;;;;;;;23.48;44.12;99577.88;2047683;28;3856;-68
2021/01/25 05:51:34;;;;;;;;;;;;;;;23.50;43.95;99575.47;2048659;28;3919;-68
2021/01/25 05:52:35;;;;;;;;;;;;;;;23.48;44.04;99580.75;2047693;28;3733;-67
2021/01/25 05:53:35;;;;;;;;;;;;;;;23.51;44.04;99581.97;2047493;28;3719;-67
2021/01/25 05:54:36;;;;;;;;;;;;;;;23.52;43.85;99578.72;2048884;28;3732;-67
2021/01/25 05:55:37;;;;;;;;;;;;;;;23.54;44.00;99576.31;2048140;28;3784;-67
2021/01/25 05:56:38;;;;;;;;;;;;;;;23.50;43.99;99577.50;2045624;28;3911;-68
2021/01/25 05:57:39;;;;;;;;;;;;;;;23.50;44.03;99580.34;2048896;28;3920;-69
2021/01/25 05:58:40;;;;;;;;;;;;;;;23.53;44.04;99582.41;2047699;28;3796;-68
2021/01/25 05:59:40;;;;;;;;;;;;;;;23.50;44.04;99581.16;2048457;29;3788;-68
2021/01/25 06:00:41;;;;;;;;;;;;;;;23.49;44.18;99578.72;2047389;28;3862;-68
2021/01/25 06:01:42;;;;;;;;;;;;;;;23.47;44.19;99581.16;2048341;29;3857;-69
2021/01/25 06:02:46;;;;;;;;;;;;;;;23.47;44.22;99579.13;2048007;28;3720;-69
2021/01/25 06:03:47;;;;;;;;;;;;;;;23.45;44.19;99584.41;2047773;28;3741;-69
2021/01/25 06:04:49;;;;;;;;;;;;;;;23.44;44.30;99587.66;2047823;28;3947;-69
2021/01/25 06:05:50;;;;;;;;;;;;;;;23.44;44.37;99581.97;2047738;28;3769;-69
2021/01/25 06:07:00;;;;;;;;;;;;;;;23.40;44.43;99590.47;2044637;28;3825;-70
2021/01/25 06:08:01;;;;;;;;;;;;;;;23.40;44.37;99590.47;2047792;28;3827;-70
2021/01/25 06:09:02;;;;;;;;;;;;;;;23.36;44.52;99591.69;2047866;28;3894;-70
2021/01/25 06:10:03;;;;;;;;;;;;;;;23.36;44.49;99592.53;2048461;28;3857;-72
2021/01/25 06:11:05;;;;;;;;;;;;;;;23.37;44.39;99588.44;2047828;28;3912;-68
2021/01/25 06:12:05;;;;;;;;;;;;;;;23.37;44.23;99591.28;2048085;28;4272;-68
2021/01/25 06:13:06;;;;;;;;;;;;;;;23.38;44.35;99592.94;2048681;28;3865;-69
2021/01/25 06:14:07;;;;;;;;;;;;;;;23.39;44.29;99588.03;2046213;28;3935;-67
2021/01/25 06:15:08;;;;;;;;;;;;;;;23.41;44.20;99594.19;2048056;28;4037;-68
2021/01/25 06:16:09;;;;;;;;;;;;;;;23.39;44.61;99593.75;2047967;28;3999;-68
2021/01/25 06:17:10;;;;;;;;;;;;;;;23.37;44.60;99591.28;2048175;28;3809;-68
2021/01/25 06:18:11;;;;;;;;;;;;;;;23.39;44.60;99600.28;2048482;28;4033;-68
2021/01/25 06:19:12;;;;;;;;;;;;;;;23.41;44.64;99600.69;2046952;28;3840;-69
2021/01/25 06:20:12;;;;;;;;;;;;;;;23.39;44.46;99596.59;2046017;28;3819;-68
2021/01/25 06:21:13;;;;;;;;;;;;;;;23.36;44.35;99598.22;2046581;28;3940;-69
2021/01/25 06:22:14;;;;;;;;;;;;;;;23.40;44.30;99604.75;2048392;28;3986;-71